createdAt,value
2019-05-06T00:01:25.472Z,3.80
2019-05-06T00:03:55.080Z,3.70
2019-05-06T00:06:24.789Z,3.75
2019-05-06T00:08:54.701Z,3.60
2019-05-06T00:11:24.435Z,3.33
2019-05-06T00:13:54.495Z,3.58
2019-05-06T00:16:26.050Z,3.75
2019-05-06T00:18:55.697Z,3.35
2019-05-06T00:21:25.405Z,3.90
2019-05-06T00:23:55.087Z,3.80
2019-05-06T00:26:26.331Z,3.62
2019-05-06T00:28:57.580Z,3.83
2019-05-06T00:31:27.216Z,3.80
2019-05-06T00:33:56.926Z,3.87
2019-05-06T00:36:26.503Z,3.80
2019-05-06T00:38:57.779Z,3.67
2019-05-06T00:41:30.805Z,3.80
2019-05-06T00:44:00.476Z,3.60
2019-05-06T00:46:30.061Z,3.40
2019-05-06T00:48:59.689Z,3.70
2019-05-06T00:51:29.410Z,3.37
2019-05-06T00:57:07.223Z,3.67
2019-05-06T00:59:36.903Z,3.75
2019-05-06T01:02:06.542Z,4.03
2019-05-06T01:04:37.983Z,3.95
2019-05-06T01:07:09.376Z,3.80
2019-05-06T01:09:39.050Z,4.08
2019-05-06T01:12:10.501Z,4.62
2019-05-06T01:14:44.378Z,4.35
2019-05-06T01:17:15.710Z,4.00
2019-05-06T01:19:45.871Z,4.07
2019-05-06T01:22:15.690Z,3.98
2019-05-06T01:24:45.267Z,5.00
2019-05-06T01:27:14.979Z,4.45
2019-05-06T01:29:44.615Z,3.92
2019-05-06T01:32:14.325Z,4.35
2019-05-06T01:34:44.653Z,4.37
2019-05-06T01:37:14.435Z,5.37
2019-05-06T01:39:59.720Z,4.40
2019-05-06T01:42:36.720Z,4.37
2019-05-06T01:45:07.935Z,3.83
2019-05-06T01:47:37.676Z,3.87
2019-05-06T01:50:07.558Z,4.50
2019-05-06T01:52:37.271Z,4.20
2019-05-06T01:55:07.598Z,4.20
2019-05-06T01:57:37.233Z,4.35
2019-05-06T02:00:10.014Z,4.00
2019-05-06T02:02:39.622Z,4.10
2019-05-06T02:05:11.291Z,3.37
2019-05-06T02:07:40.987Z,3.83
2019-05-06T02:10:14.142Z,4.22
2019-05-06T02:12:44.312Z,4.40
2019-05-06T02:15:14.597Z,3.70
2019-05-06T02:17:46.141Z,4.30
2019-05-06T02:20:15.785Z,4.07
2019-05-06T02:22:53.861Z,3.60
2019-05-06T02:25:25.242Z,4.42
2019-05-06T02:27:55.052Z,3.90
2019-05-06T02:30:26.311Z,3.50
2019-05-06T02:32:57.552Z,4.50
2019-05-06T02:35:28.791Z,4.22
2019-05-06T02:37:58.503Z,4.73
2019-05-06T02:40:28.879Z,4.55
2019-05-06T02:42:58.537Z,4.25
2019-05-06T02:45:28.222Z,3.80
2019-05-06T02:48:14.238Z,3.92
2019-05-06T02:50:46.707Z,3.72
2019-05-06T02:53:18.054Z,3.70
2019-05-06T02:55:47.669Z,4.10
2019-05-06T02:58:17.369Z,3.72
2019-05-06T03:00:48.183Z,4.20
2019-05-06T03:03:17.897Z,3.70
2019-05-06T03:05:49.348Z,3.77
2019-05-06T03:08:23.485Z,2.62
2019-05-06T03:10:52.972Z,4.10
2019-05-06T03:13:23.620Z,4.12
2019-05-06T03:15:54.045Z,3.93
2019-05-06T03:18:24.143Z,3.37
2019-05-06T03:20:58.171Z,4.05
2019-05-06T03:23:35.414Z,3.80
2019-05-06T03:26:06.697Z,3.58
2019-05-06T03:28:36.432Z,3.37
2019-05-06T03:31:07.710Z,3.80
2019-05-06T03:33:56.887Z,3.53
2019-05-06T03:36:18.848Z,3.43
2019-05-06T03:38:42.961Z,2.98
2019-05-06T03:41:13.859Z,3.70
2019-05-06T03:43:43.387Z,3.53
2019-05-06T03:46:28.846Z,4.03
2019-05-06T03:49:13.510Z,3.42
2019-05-06T03:51:43.346Z,3.50
2019-05-06T03:54:13.232Z,3.77
2019-05-06T03:56:43.407Z,3.85
2019-05-06T03:59:15.315Z,4.05
2019-05-06T04:01:44.961Z,4.05
2019-05-06T04:04:14.661Z,3.77
2019-05-06T04:06:44.371Z,4.30
2019-05-06T04:09:14.051Z,4.37
2019-05-06T04:11:44.071Z,4.08
2019-05-06T04:14:14.177Z,4.03
2019-05-06T04:16:52.793Z,4.33
2019-05-06T04:19:24.106Z,4.05
2019-05-06T04:22:03.527Z,4.60
2019-05-06T04:24:36.587Z,4.55
2019-05-06T04:27:36.670Z,4.83
2019-05-06T04:30:06.450Z,4.50
2019-05-06T04:32:37.129Z,5.37
2019-05-06T04:35:06.890Z,5.25
2019-05-06T04:37:36.597Z,5.42
2019-05-06T04:40:07.641Z,4.67
2019-05-06T04:42:37.332Z,5.17
2019-05-06T04:45:06.957Z,4.78
2019-05-06T04:47:37.607Z,4.75
2019-05-06T04:50:08.323Z,5.20
2019-05-06T04:52:38.031Z,4.87
2019-05-06T04:55:07.641Z,5.17
2019-05-06T04:57:38.376Z,4.87
2019-05-06T05:00:07.984Z,4.58
2019-05-06T05:02:37.696Z,4.47
2019-05-06T05:05:07.477Z,5.00
2019-05-06T05:07:37.189Z,5.83
2019-05-06T05:10:08.431Z,5.35
2019-05-06T05:12:55.990Z,5.70
2019-05-06T05:15:44.070Z,4.72
2019-05-06T05:18:22.202Z,4.65
2019-05-06T05:20:52.870Z,5.33
2019-05-06T05:23:22.925Z,5.37
2019-05-06T05:25:52.701Z,5.60
2019-05-06T05:28:24.099Z,5.67
2019-05-06T05:30:53.765Z,4.92
2019-05-06T05:33:23.339Z,4.87
2019-05-06T05:35:53.047Z,5.20
2019-05-06T05:38:22.849Z,5.90
2019-05-06T05:40:52.634Z,4.87
2019-05-06T05:43:23.846Z,5.95
2019-05-06T05:45:54.172Z,5.20
2019-05-06T05:48:42.378Z,5.28
2019-05-06T05:51:12.745Z,5.20
2019-05-06T05:53:42.681Z,5.58
2019-05-06T05:56:12.847Z,4.83
2019-05-06T05:58:42.586Z,5.65
2019-05-06T06:01:13.294Z,5.22
2019-05-06T06:03:43.048Z,5.37
2019-05-06T06:06:12.771Z,5.28
2019-05-06T06:08:43.231Z,5.95
2019-05-06T06:11:14.486Z,5.00
2019-05-06T06:13:44.195Z,3.90
2019-05-06T06:16:23.342Z,3.92
2019-05-06T06:18:56.961Z,4.22
2019-05-06T06:21:32.201Z,3.98
2019-05-06T06:24:05.439Z,4.08
2019-05-06T06:26:35.101Z,3.80
2019-05-06T06:29:04.703Z,3.45
2019-05-06T06:31:36.925Z,3.85
2019-05-06T06:36:57.939Z,4.20
2019-05-06T06:39:29.119Z,4.42
2019-05-06T06:41:59.880Z,3.97
2019-05-06T06:44:32.935Z,3.87
2019-05-06T06:47:02.581Z,4.00
2019-05-06T06:49:32.854Z,3.83
2019-05-06T06:52:09.145Z,4.03
2019-05-06T06:54:35.089Z,3.73
2019-05-06T06:57:09.667Z,4.30
2019-05-06T06:59:49.767Z,3.90
2019-05-06T07:02:23.983Z,3.90
2019-05-06T07:04:57.993Z,4.12
2019-05-06T07:07:41.305Z,3.95
2019-05-06T07:10:02.649Z,3.55
2019-05-06T07:12:32.827Z,3.40
2019-05-06T07:15:04.315Z,4.03
2019-05-06T07:17:34.122Z,3.27
2019-05-06T07:20:05.850Z,3.55
2019-05-06T07:22:38.536Z,3.45
2019-05-06T07:25:08.884Z,3.30
2019-05-06T07:27:38.594Z,4.22
2019-05-06T07:30:08.202Z,3.62
2019-05-06T07:32:37.912Z,3.95
2019-05-06T07:35:08.502Z,3.70
2019-05-06T07:37:38.224Z,3.70
2019-05-06T07:40:08.885Z,3.85
2019-05-06T07:42:42.968Z,3.67
2019-05-06T07:45:15.781Z,3.83
2019-05-06T07:47:50.171Z,3.42
2019-05-06T07:50:19.778Z,3.05
2019-05-06T07:53:09.672Z,3.08
2019-05-06T07:55:39.421Z,3.20
2019-05-06T07:58:09.083Z,2.95
2019-05-06T08:00:38.715Z,3.50
2019-05-06T08:03:08.451Z,3.62
2019-05-06T08:05:51.569Z,3.17
2019-05-06T08:08:09.389Z,2.93
2019-05-06T08:10:42.235Z,3.35
2019-05-06T08:13:10.315Z,3.27
2019-05-06T08:15:41.990Z,2.50
2019-05-06T08:18:12.629Z,2.67
2019-05-06T08:20:42.794Z,2.58
2019-05-06T08:23:14.171Z,2.35
2019-05-06T08:25:45.446Z,2.10
2019-05-06T08:28:15.128Z,2.40
2019-05-06T08:30:44.735Z,2.17
2019-05-06T08:33:14.475Z,2.15
2019-05-06T08:35:45.186Z,2.10
2019-05-06T08:38:15.878Z,2.70
2019-05-06T08:40:45.523Z,2.70
2019-05-06T08:43:15.231Z,2.95
2019-05-06T08:45:46.565Z,2.37
2019-05-06T08:48:16.188Z,2.20
2019-05-06T08:50:52.764Z,2.25
2019-05-06T08:53:35.169Z,2.65
2019-05-06T08:56:06.002Z,2.25
2019-05-06T08:58:52.789Z,2.33
2019-05-06T09:01:29.591Z,1.80
2019-05-06T09:04:11.458Z,2.30
2019-05-06T09:06:34.202Z,2.17
2019-05-06T09:09:05.220Z,2.02
2019-05-06T09:11:37.282Z,2.40
2019-05-06T09:14:13.717Z,2.40
2019-05-06T09:16:44.759Z,2.62
2019-05-06T09:19:14.359Z,2.30
2019-05-06T09:21:46.385Z,2.67
2019-05-06T09:24:15.339Z,2.50
2019-05-06T09:26:46.584Z,2.50
2019-05-06T09:29:22.970Z,2.70
2019-05-06T09:31:56.451Z,2.08
2019-05-06T09:34:32.471Z,2.30
2019-05-06T09:37:16.457Z,2.15
2019-05-06T09:39:47.913Z,2.08
2019-05-06T09:42:17.718Z,2.08
2019-05-06T09:44:50.263Z,2.20
2019-05-06T09:47:22.818Z,2.60
2019-05-06T09:49:53.104Z,1.98
2019-05-06T09:52:23.372Z,2.70
2019-05-06T09:55:04.086Z,2.55
2019-05-06T09:57:35.539Z,2.80
2019-05-06T10:00:06.576Z,2.50
2019-05-06T10:02:37.796Z,2.00
2019-05-06T10:05:07.430Z,2.58
2019-05-06T10:07:38.187Z,2.15
2019-05-06T10:10:07.871Z,2.60
2019-05-06T10:12:38.995Z,2.50
2019-05-06T10:15:08.729Z,2.40
2019-05-06T10:17:38.540Z,2.40
2019-05-06T10:20:08.223Z,2.27
2019-05-06T10:22:39.682Z,2.02
2019-05-06T10:25:09.309Z,2.00
2019-05-06T10:27:42.221Z,2.40
2019-05-06T10:30:13.527Z,2.65
2019-05-06T10:32:44.929Z,2.43
2019-05-06T10:35:14.601Z,2.50
2019-05-06T10:37:47.384Z,2.35
2019-05-06T10:40:22.448Z,2.45
2019-05-06T10:43:12.480Z,2.33
2019-05-06T10:45:42.658Z,2.00
2019-05-06T10:48:12.882Z,2.40
2019-05-06T10:50:44.191Z,2.33
2019-05-06T10:53:15.545Z,2.30
2019-05-06T10:55:46.762Z,2.30
2019-05-06T10:58:16.729Z,2.37
2019-05-06T11:00:48.643Z,2.45
2019-05-06T11:03:22.877Z,2.40
2019-05-06T11:05:53.345Z,2.08
2019-05-06T11:08:25.322Z,2.42
2019-05-06T11:10:54.751Z,2.10
2019-05-06T11:13:24.734Z,2.20
2019-05-06T11:15:55.538Z,2.17
2019-05-06T11:18:25.446Z,1.80
2019-05-06T11:20:56.352Z,2.17
2019-05-06T11:23:26.300Z,1.98
2019-05-06T11:25:55.983Z,1.87
2019-05-06T11:28:43.715Z,2.30
2019-05-06T11:31:14.989Z,2.42
2019-05-06T11:33:52.615Z,2.40
2019-05-06T11:36:23.935Z,2.42
2019-05-06T11:38:55.489Z,2.40
2019-05-06T11:41:24.992Z,2.23
2019-05-06T11:43:54.700Z,2.08
2019-05-06T11:46:24.412Z,2.75
2019-05-06T11:48:54.122Z,2.42
2019-05-06T11:51:26.490Z,2.60
2019-05-06T11:53:56.207Z,3.20
2019-05-06T11:56:25.783Z,2.30
2019-05-06T11:58:57.160Z,2.25
2019-05-06T12:01:32.784Z,2.00
2019-05-06T12:04:03.208Z,2.35
2019-05-06T12:06:33.263Z,2.20
2019-05-06T12:09:06.387Z,2.58
2019-05-06T12:11:36.028Z,2.75
2019-05-06T12:14:06.071Z,2.52
2019-05-06T12:16:35.792Z,2.45
2019-05-06T12:19:05.493Z,2.85
2019-05-06T12:21:36.098Z,2.85
2019-05-06T12:24:05.803Z,2.98
2019-05-06T12:26:35.543Z,2.62
2019-05-06T12:29:06.093Z,2.90
2019-05-06T12:31:35.771Z,3.25
2019-05-06T12:34:05.463Z,3.10
2019-05-06T12:36:36.931Z,2.90
2019-05-06T12:39:17.748Z,2.97
2019-05-06T12:41:59.914Z,2.55
2019-05-06T12:44:32.269Z,2.72
2019-05-06T12:47:06.607Z,2.83
2019-05-06T12:49:36.291Z,3.02
2019-05-06T12:52:06.027Z,2.60
2019-05-06T12:54:35.736Z,2.83
2019-05-06T12:57:05.447Z,2.87
2019-05-06T12:59:36.764Z,3.00
2019-05-06T13:02:06.405Z,2.87
2019-05-06T13:04:50.172Z,2.98
2019-05-06T13:07:08.998Z,2.75
2019-05-06T13:09:42.232Z,2.70
2019-05-06T13:12:12.310Z,2.60
2019-05-06T13:17:14.290Z,2.30
2019-05-06T13:19:45.050Z,2.45
2019-05-06T13:22:16.345Z,2.35
2019-05-06T13:24:46.083Z,2.83
2019-05-06T13:27:17.244Z,2.47
2019-05-06T13:29:46.936Z,2.30
2019-05-06T13:32:18.182Z,2.30
2019-05-06T13:34:47.771Z,2.40
2019-05-06T13:37:17.602Z,2.40
2019-05-06T13:39:47.211Z,2.20
2019-05-06T13:42:22.475Z,2.20
2019-05-06T13:44:49.776Z,2.50
2019-05-06T13:47:37.108Z,2.45
2019-05-06T13:50:07.861Z,2.20
2019-05-06T13:52:38.269Z,2.12
2019-05-06T13:55:08.199Z,1.80
2019-05-06T13:57:39.421Z,2.55
2019-05-06T14:00:10.359Z,2.10
2019-05-06T14:02:43.693Z,2.12
2019-05-06T14:05:13.814Z,1.95
2019-05-06T14:07:44.604Z,1.98
2019-05-06T14:10:14.554Z,2.52
2019-05-06T14:12:44.162Z,2.67
2019-05-06T14:15:14.563Z,2.50
2019-05-06T14:17:45.989Z,2.63
2019-05-06T14:20:15.749Z,2.27
2019-05-06T14:22:45.460Z,2.92
2019-05-06T14:25:33.146Z,2.92
2019-05-06T14:28:12.374Z,3.10
2019-05-06T14:30:43.876Z,2.98
2019-05-06T14:33:15.438Z,2.52
2019-05-06T14:35:45.338Z,3.25
2019-05-06T14:38:15.060Z,2.83
2019-05-06T14:41:06.059Z,2.83
2019-05-06T14:43:32.701Z,3.30
2019-05-06T14:46:02.515Z,2.98
2019-05-06T14:48:33.330Z,3.10
2019-05-06T14:51:03.988Z,3.08
2019-05-06T14:53:33.698Z,3.35
2019-05-06T14:56:04.913Z,3.15
2019-05-06T14:58:34.651Z,3.95
2019-05-06T15:01:04.671Z,4.33
2019-05-06T15:03:34.381Z,4.03
2019-05-06T15:06:03.960Z,3.90
2019-05-06T15:08:33.693Z,4.40
2019-05-06T15:11:04.391Z,3.92
2019-05-06T15:13:34.025Z,4.22
2019-05-06T15:16:03.807Z,4.53
2019-05-06T15:18:35.378Z,4.17
2019-05-06T15:21:30.247Z,4.00
2019-05-06T15:23:36.359Z,4.30
2019-05-06T15:26:06.071Z,3.92
2019-05-06T15:28:36.758Z,4.15
2019-05-06T15:31:22.855Z,4.67
2019-05-06T15:33:59.058Z,4.10
2019-05-06T15:36:32.583Z,4.47
2019-05-06T15:39:02.446Z,4.58
2019-05-06T15:41:33.513Z,4.10
2019-05-06T15:44:03.167Z,4.42
2019-05-06T15:46:32.936Z,4.25
2019-05-06T15:49:03.134Z,4.17
2019-05-06T15:51:35.629Z,4.22
2019-05-06T15:54:05.830Z,4.97
2019-05-06T15:56:35.534Z,3.65
2019-05-06T15:59:07.225Z,4.10
2019-05-06T16:01:36.725Z,4.07
2019-05-06T16:04:06.331Z,4.62
2019-05-06T16:06:35.944Z,4.40
2019-05-06T16:09:06.757Z,4.58
2019-05-06T16:11:36.689Z,4.42
2019-05-06T16:14:06.403Z,4.58
2019-05-06T16:16:36.085Z,4.28
2019-05-06T16:19:05.820Z,3.70
2019-05-06T16:21:36.397Z,3.90
2019-05-06T16:24:12.554Z,3.77
2019-05-06T16:26:42.546Z,3.70
2019-05-06T16:29:13.144Z,3.90
2019-05-06T16:31:42.869Z,4.10
2019-05-06T16:34:14.717Z,3.52
2019-05-06T16:36:43.830Z,4.23
2019-05-06T16:39:13.456Z,3.60
2019-05-06T16:41:44.790Z,3.87
2019-05-06T16:44:14.595Z,3.37
2019-05-06T16:46:44.279Z,3.30
2019-05-06T16:49:14.265Z,4.33
2019-05-06T16:51:44.144Z,3.85
2019-05-06T16:54:14.051Z,3.70
2019-05-06T16:56:46.765Z,3.60
2019-05-06T16:59:16.441Z,3.33
2019-05-06T17:01:46.764Z,3.67
2019-05-06T17:04:32.994Z,4.15
2019-05-06T17:07:03.014Z,3.33
2019-05-06T17:09:33.466Z,3.43
2019-05-06T17:12:04.733Z,4.75
2019-05-06T17:14:34.463Z,6.20
2019-05-06T17:17:04.147Z,3.80
2019-05-06T17:19:33.755Z,4.25
2019-05-06T17:22:03.498Z,4.60
2019-05-06T17:24:33.345Z,5.12
2019-05-06T17:27:03.068Z,4.80
2019-05-06T17:29:42.652Z,5.17
2019-05-06T17:32:28.243Z,5.53
2019-05-06T17:34:59.155Z,5.20
2019-05-06T17:37:46.927Z,5.40
2019-05-06T17:40:19.082Z,5.83
2019-05-06T17:42:48.704Z,5.60
2019-05-06T17:45:36.436Z,5.53
2019-05-06T17:48:19.867Z,5.78
2019-05-06T17:51:07.088Z,5.37
2019-05-06T17:53:37.309Z,5.17
2019-05-06T17:56:07.024Z,4.85
2019-05-06T17:58:36.598Z,5.50
2019-05-06T18:01:07.669Z,6.03
2019-05-06T18:03:37.351Z,5.17
2019-05-06T18:06:13.366Z,6.00
2019-05-06T18:08:38.455Z,6.57
2019-05-06T18:11:08.149Z,5.95
2019-05-06T18:13:37.861Z,6.28
2019-05-06T18:16:07.464Z,6.05
2019-05-06T18:18:37.147Z,6.30
2019-05-06T18:21:06.857Z,6.15
2019-05-06T18:23:36.666Z,6.10
2019-05-06T18:26:06.305Z,6.80
2019-05-06T18:28:35.988Z,6.20
2019-05-06T18:31:06.749Z,6.15
2019-05-06T18:33:36.327Z,6.17
2019-05-06T18:36:06.412Z,6.17
2019-05-06T18:38:36.185Z,5.95
2019-05-06T18:41:05.898Z,6.12
2019-05-06T18:43:35.508Z,5.90
2019-05-06T18:46:06.239Z,5.62
2019-05-06T18:48:35.948Z,7.00
2019-05-06T18:51:05.632Z,6.67
2019-05-06T18:53:56.647Z,6.95
2019-05-06T18:56:26.043Z,6.70
2019-05-06T18:58:55.680Z,6.83
2019-05-06T19:01:25.392Z,6.45
2019-05-06T19:03:56.636Z,6.55
2019-05-06T19:06:26.448Z,7.33
2019-05-06T19:09:02.446Z,7.62
2019-05-06T19:11:33.273Z,7.58
2019-05-06T19:14:03.056Z,6.83
2019-05-06T19:16:48.326Z,7.37
2019-05-06T19:19:06.034Z,6.53
2019-05-06T19:21:35.357Z,7.40
2019-05-06T19:24:05.039Z,8.30
2019-05-06T19:26:34.778Z,7.97
2019-05-06T19:29:04.625Z,7.30
2019-05-06T19:31:34.507Z,7.55
2019-05-06T19:34:04.186Z,7.55
2019-05-06T19:36:34.869Z,8.15
2019-05-06T19:39:06.681Z,7.80
2019-05-06T19:41:36.392Z,8.08
2019-05-06T19:44:06.104Z,8.43
2019-05-06T19:46:35.837Z,8.80
2019-05-06T19:49:07.358Z,8.25
2019-05-06T19:51:36.970Z,8.55
2019-05-06T19:54:07.672Z,7.37
2019-05-06T19:56:38.444Z,11.55
2019-05-06T19:59:08.076Z,8.40
2019-05-06T20:01:37.785Z,8.28
2019-05-06T20:04:07.365Z,7.75
2019-05-06T20:06:47.519Z,8.38
2019-05-06T20:09:24.528Z,8.15
2019-05-06T20:11:58.745Z,8.28
2019-05-06T20:14:30.186Z,9.13
2019-05-06T20:16:59.904Z,8.53
2019-05-06T20:19:31.301Z,7.83
2019-05-06T20:22:02.072Z,8.80
2019-05-06T20:24:33.278Z,8.80
2019-05-06T20:27:03.120Z,8.45
2019-05-06T20:29:35.194Z,8.50
2019-05-06T20:32:04.207Z,8.03
2019-05-06T20:34:33.918Z,8.13
2019-05-06T20:37:05.341Z,7.65
2019-05-06T20:39:34.947Z,7.77
2019-05-06T20:42:04.555Z,7.83
2019-05-06T20:44:34.294Z,8.40
2019-05-06T20:47:03.902Z,8.23
2019-05-06T20:49:33.583Z,7.62
2019-05-06T20:52:03.218Z,8.00
2019-05-06T20:54:32.929Z,8.03
2019-05-06T20:57:02.693Z,8.15
2019-05-06T20:59:32.453Z,7.92
2019-05-06T21:02:03.062Z,8.40
2019-05-06T21:04:32.971Z,8.48
2019-05-06T21:07:03.583Z,7.95
2019-05-06T21:09:33.310Z,8.55
2019-05-06T21:12:03.051Z,8.05
2019-05-06T21:14:32.965Z,7.80
2019-05-06T21:17:02.721Z,7.62
2019-05-06T21:19:33.083Z,7.72
2019-05-06T21:22:03.017Z,7.83
2019-05-06T21:24:35.752Z,7.45
2019-05-06T21:27:03.973Z,7.90
2019-05-06T21:29:34.641Z,7.10
2019-05-06T21:32:04.419Z,6.85
2019-05-06T21:34:33.996Z,6.50
2019-05-06T21:37:05.425Z,7.60
2019-05-06T21:39:35.086Z,7.50
2019-05-06T21:42:06.335Z,7.62
2019-05-06T21:44:37.786Z,7.35
2019-05-06T21:47:07.286Z,7.60
2019-05-06T21:49:36.895Z,6.78
2019-05-06T21:52:08.347Z,7.47
2019-05-06T21:54:38.059Z,6.90
2019-05-06T21:57:07.764Z,7.17
2019-05-06T21:59:38.434Z,7.42
2019-05-06T22:02:11.660Z,7.25
2019-05-06T22:04:43.203Z,7.22
2019-05-06T22:07:14.219Z,7.77
2019-05-06T22:09:43.862Z,8.25
2019-05-06T22:12:14.588Z,7.60
2019-05-06T22:14:44.337Z,7.17
2019-05-06T22:17:14.199Z,7.80
2019-05-06T22:19:44.037Z,7.62
2019-05-06T22:22:15.310Z,8.13
2019-05-06T22:24:55.037Z,7.87
2019-05-06T22:27:21.998Z,7.22
2019-05-06T22:29:52.196Z,7.65
2019-05-06T22:32:23.238Z,7.40
2019-05-06T22:34:53.178Z,7.35
2019-05-06T22:37:22.811Z,6.97
2019-05-06T22:39:53.555Z,7.03
2019-05-06T22:42:24.901Z,7.35
2019-05-06T22:44:54.756Z,7.15
2019-05-06T22:47:24.494Z,7.72
2019-05-06T22:49:54.434Z,7.10
2019-05-06T22:52:24.294Z,7.33
2019-05-06T22:54:55.752Z,7.05
2019-05-06T22:57:25.380Z,6.83
2019-05-06T22:59:54.990Z,7.53
2019-05-06T23:02:39.638Z,7.72
2019-05-06T23:05:12.328Z,6.80
2019-05-06T23:07:42.353Z,7.10
2019-05-06T23:10:12.162Z,6.80
2019-05-06T23:12:54.483Z,6.50
2019-05-06T23:17:53.066Z,6.72
2019-05-06T23:20:24.516Z,6.70
2019-05-06T23:22:54.024Z,6.58
2019-05-06T23:25:23.733Z,6.85
2019-05-06T23:27:53.338Z,6.17
2019-05-06T23:30:23.643Z,6.22
2019-05-06T23:32:53.458Z,6.87
2019-05-06T23:35:23.190Z,6.37
2019-05-06T23:38:29.321Z,6.45
2019-05-06T23:41:35.589Z,6.05
2019-05-06T23:44:45.539Z,6.00
2019-05-06T23:47:49.662Z,5.97
2019-05-06T23:50:56.029Z,6.17
2019-05-06T23:54:03.103Z,5.47
2019-05-06T23:56:43.537Z,5.37
2019-05-06T23:59:17.402Z,5.85
